Time;durP1;ratioP1;P1;durP2;ratioP2;P2;SDS_P1;SDS_P2;PMS_P1;PMS_P2;Temp;Humidity;BMP_temperature;BMP_pressure;BME280_temperature;BME280_humidity;BME280_pressure;Samples;Min_cycle;Max_cycle;Signal;HPM_P1;HPM_P2
2023/09/18 00:01:21;;;;;;;4.55;2.70;;;21.30;99.30;;;;;;5050573;28;20052;-71
2023/09/18 00:04:07;;;;;;;3.67;2.60;;;21.20;98.90;;;;;;5033671;28;20042;-71
2023/09/18 00:06:53;;;;;;;5.20;3.15;;;21.20;98.90;;;;;;5043145;28;20100;-71
2023/09/18 00:09:39;;;;;;;5.75;3.00;;;21.10;99.10;;;;;;5015607;28;20052;-71
2023/09/18 00:12:25;;;;;;;5.32;3.33;;;21.10;99.20;;;;;;5015486;28;20052;-71
2023/09/18 00:15:11;;;;;;;8.23;3.20;;;21.10;99.30;;;;;;5019731;28;20482;-71
2023/09/18 00:17:57;;;;;;;6.38;3.10;;;21.10;99.30;;;;;;5011891;28;20053;-71
2023/09/18 00:20:46;;;;;;;5.97;3.47;;;21.00;99.40;;;;;;5000727;28;20073;-71
2023/09/18 00:23:35;;;;;;;6.53;3.38;;;21.00;99.40;;;;;;4996235;28;20041;-71
2023/09/18 00:26:21;;;;;;;5.60;3.40;;;21.00;99.60;;;;;;4997491;28;20473;-72
2023/09/18 00:29:07;;;;;;;6.60;3.47;;;21.00;99.80;;;;;;5001385;28;20045;-71
2023/09/18 00:31:52;;;;;;;5.07;3.00;;;20.90;99.80;;;;;;5001476;28;20050;-71
2023/09/18 00:34:38;;;;;;;7.75;3.47;;;20.90;99.90;;;;;;5013814;28;20788;-71
2023/09/18 00:37:24;;;;;;;7.55;3.67;;;20.90;99.90;;;;;;4999885;28;20042;-71
2023/09/18 00:40:11;;;;;;;5.40;3.28;;;20.80;99.90;;;;;;4999865;28;20128;-71
2023/09/18 00:42:57;;;;;;;5.47;3.20;;;20.70;99.90;;;;;;4985926;28;20104;-71
2023/09/18 00:45:45;;;;;;;5.25;3.42;;;20.70;99.90;;;;;;5003485;28;20417;-71
2023/09/18 00:48:31;;;;;;;6.93;3.88;;;20.70;99.90;;;;;;5020917;28;20049;-70
2023/09/18 00:51:17;;;;;;;5.30;3.55;;;20.60;99.90;;;;;;5022120;28;20473;-70
2023/09/18 00:54:03;;;;;;;5.65;3.50;;;20.60;99.90;;;;;;5018905;28;20080;-70
2023/09/18 00:56:53;;;;;;;4.85;3.60;;;20.50;99.90;;;;;;4990754;28;20037;-72
2023/09/18 00:59:39;;;;;;;6.63;3.95;;;20.50;99.90;;;;;;4995554;28;20037;-73
2023/09/18 01:02:26;;;;;;;5.95;3.53;;;20.40;99.90;;;;;;5028608;28;20052;-72
2023/09/18 01:05:12;;;;;;;4.65;3.40;;;20.30;99.90;;;;;;5038976;28;20796;-71
2023/09/18 01:07:59;;;;;;;5.18;3.53;;;20.30;99.90;;;;;;5022120;28;20143;-71
2023/09/18 01:11:00;;;;;;;6.30;3.60;;;20.40;99.90;;;;;;4989838;28;20044;-71
2023/09/18 01:13:54;;;;;;;7.18;3.78;;;20.30;99.90;;;;;;5003932;28;20037;-71
2023/09/18 01:16:56;;;;;;;5.65;3.80;;;20.40;99.90;;;;;;5015051;28;20048;-71
2023/09/18 01:19:45;;;;;;;4.88;3.80;;;20.30;99.90;;;;;;4987966;28;20050;-71
2023/09/18 01:22:32;;;;;;;5.40;3.05;;;20.30;99.90;;;;;;5002943;28;20048;-71
2023/09/18 01:25:19;;;;;;;5.22;3.47;;;20.30;99.90;;;;;;5020316;28;20412;-71
2023/09/18 01:28:05;;;;;;;6.97;3.67;;;20.30;99.90;;;;;;5027198;28;20044;-71
2023/09/18 01:30:51;;;;;;;6.03;3.53;;;20.30;99.90;;;;;;5033921;28;20049;-71
2023/09/18 01:33:37;;;;;;;8.40;3.60;;;20.30;99.90;;;;;;5020462;28;20045;-71
2023/09/18 01:36:23;;;;;;;5.85;3.97;;;20.30;99.90;;;;;;4998934;28;20121;-71
2023/09/18 01:39:10;;;;;;;4.32;3.50;;;20.30;99.90;;;;;;5002690;28;20110;-71
2023/09/18 01:41:58;;;;;;;6.47;3.60;;;20.30;99.90;;;;;;4999033;28;20489;-72
2023/09/18 01:44:44;;;;;;;9.82;3.65;;;20.30;99.90;;;;;;5004243;28;20041;-72
2023/09/18 01:47:30;;;;;;;7.80;3.85;;;20.20;99.90;;;;;;5004382;28;20056;-72
2023/09/18 01:50:17;;;;;;;4.82;3.95;;;20.20;99.90;;;;;;5016311;28;20148;-72
2023/09/18 01:53:03;;;;;;;7.15;3.92;;;20.20;99.90;;;;;;5038632;28;20493;-72
2023/09/18 01:55:49;;;;;;;9.77;3.55;;;20.20;99.90;;;;;;5005202;28;20411;-72
2023/09/18 01:58:35;;;;;;;5.28;3.50;;;20.20;99.90;;;;;;5013532;28;20041;-72
2023/09/18 02:01:21;;;;;;;6.80;3.97;;;20.10;99.90;;;;;;5031753;28;20478;-72
2023/09/18 02:04:07;;;;;;;7.55;4.07;;;20.20;99.90;;;;;;5017147;28;20055;-72
2023/09/18 02:06:53;;;;;;;5.35;3.70;;;20.10;99.90;;;;;;5004528;28;20191;-72
2023/09/18 02:09:39;;;;;;;8.20;3.80;;;20.10;99.90;;;;;;5001325;28;20075;-72
2023/09/18 02:12:27;;;;;;;5.50;3.55;;;20.10;99.90;;;;;;4994048;28;20099;-72
2023/09/18 02:15:13;;;;;;;5.95;3.70;;;20.10;99.90;;;;;;4997099;28;20041;-72
2023/09/18 02:17:59;;;;;;;9.95;4.20;;;20.10;99.90;;;;;;5002522;28;20504;-72
2023/09/18 02:20:48;;;;;;;6.28;3.45;;;20.10;99.90;;;;;;5024102;28;20040;-72
2023/09/18 02:23:34;;;;;;;7.00;3.90;;;20.10;99.90;;;;;;4983778;28;20064;-72
2023/09/18 02:26:20;;;;;;;4.22;3.60;;;20.00;99.90;;;;;;4981511;28;20587;-72
2023/09/18 02:29:13;;;;;;;5.78;3.90;;;20.00;99.90;;;;;;5015831;28;20509;-72
2023/09/18 02:31:59;;;;;;;5.88;3.78;;;19.90;99.90;;;;;;5007679;28;20470;-71
2023/09/18 02:34:45;;;;;;;5.65;4.55;;;19.90;99.90;;;;;;4991559;28;20478;-71
2023/09/18 02:37:33;;;;;;;5.50;3.42;;;19.90;99.90;;;;;;5018901;28;20045;-71
2023/09/18 02:40:19;;;;;;;4.35;3.72;;;19.80;99.90;;;;;;5042710;28;20038;-71
2023/09/18 02:43:05;;;;;;;8.55;4.22;;;19.70;99.90;;;;;;5026425;28;20051;-70
2023/09/18 02:45:51;;;;;;;6.03;4.10;;;19.80;99.90;;;;;;5021193;28;20044;-73
2023/09/18 02:48:38;;;;;;;6.72;4.60;;;19.80;99.90;;;;;;5040489;28;20044;-70
2023/09/18 02:51:24;;;;;;;8.85;4.95;;;19.70;99.90;;;;;;5032672;28;20045;-70
2023/09/18 02:54:09;;;;;;;7.80;4.93;;;19.60;99.90;;;;;;5029364;28;20048;-71
2023/09/18 02:56:55;;;;;;;6.75;4.78;;;19.50;99.90;;;;;;5015970;28;20046;-71
2023/09/18 02:59:41;;;;;;;6.70;4.38;;;19.50;99.90;;;;;;5008944;28;20654;-71
2023/09/18 03:02:28;;;;;;;6.25;4.65;;;19.60;99.90;;;;;;5035678;28;20077;-72
2023/09/18 03:05:15;;;;;;;5.97;4.28;;;19.60;99.90;;;;;;5016849;28;20038;-70
2023/09/18 03:08:01;;;;;;;8.40;4.20;;;19.60;99.90;;;;;;5041731;28;20048;-72
2023/09/18 03:10:47;;;;;;;5.68;4.20;;;19.70;99.90;;;;;;5020976;28;20276;-73
2023/09/18 03:13:35;;;;;;;6.78;4.28;;;19.60;99.90;;;;;;4995965;28;20113;-72
2023/09/18 03:16:21;;;;;;;5.28;3.92;;;19.60;99.90;;;;;;5037947;28;20056;-72
2023/09/18 03:19:08;;;;;;;5.45;3.80;;;19.60;99.90;;;;;;5009750;28;20065;-71
2023/09/18 03:21:54;;;;;;;8.03;4.20;;;19.60;99.90;;;;;;5031504;28;20493;-71
2023/09/18 03:24:40;;;;;;;6.80;3.88;;;19.60;99.90;;;;;;5021820;28;20041;-70
2023/09/18 03:27:28;;;;;;;4.68;3.70;;;19.50;99.90;;;;;;5005534;28;20477;-71
2023/09/18 03:30:17;;;;;;;9.23;4.68;;;19.50;99.90;;;;;;5016956;28;20131;-71
2023/09/18 03:33:03;;;;;;;7.13;4.80;;;19.50;99.90;;;;;;5041521;28;20068;-72
2023/09/18 03:35:50;;;;;;;5.78;4.30;;;19.50;99.90;;;;;;5036658;28;20130;-72
2023/09/18 03:38:39;;;;;;;8.98;5.78;;;19.40;99.90;;;;;;5046912;28;20123;-71
2023/09/18 03:41:25;;;;;;;6.38;5.07;;;19.30;99.90;;;;;;5030483;28;20060;-71
2023/09/18 03:44:11;;;;;;;6.88;4.90;;;19.30;99.90;;;;;;5013437;28;20049;-71
2023/09/18 03:46:57;;;;;;;6.82;4.97;;;19.30;99.90;;;;;;5031653;28;20037;-70
2023/09/18 03:49:43;;;;;;;7.22;4.95;;;19.30;99.90;;;;;;5050145;28;20055;-72
2023/09/18 03:52:29;;;;;;;8.23;5.03;;;19.30;99.90;;;;;;5048649;28;20056;-71
2023/09/18 03:55:15;;;;;;;8.05;5.32;;;19.30;99.90;;;;;;5014607;28;20041;-71
2023/09/18 03:58:01;;;;;;;7.68;4.95;;;19.30;99.90;;;;;;5030531;28;20092;-71
2023/09/18 04:00:49;;;;;;;6.32;4.80;;;19.30;99.90;;;;;;4989381;28;20037;-71
2023/09/18 04:03:35;;;;;;;6.53;4.70;;;19.30;99.90;;;;;;5009693;28;20064;-71
2023/09/18 04:06:24;;;;;;;7.90;5.85;;;19.30;99.90;;;;;;5020938;28;20054;-71
2023/09/18 04:09:10;;;;;;;6.97;5.20;;;19.30;99.90;;;;;;5020975;28;20041;-71
2023/09/18 04:11:56;;;;;;;6.40;4.85;;;19.20;99.90;;;;;;5017355;28;20124;-71
2023/09/18 04:14:42;;;;;;;8.80;5.05;;;19.20;99.90;;;;;;5041308;28;20083;-71
2023/09/18 04:17:28;;;;;;;7.03;4.70;;;19.30;99.90;;;;;;5030884;28;20045;-70
2023/09/18 04:20:14;;;;;;;6.63;4.35;;;19.30;99.90;;;;;;5004823;28;20067;-73
2023/09/18 04:23:29;;;;;;;6.15;4.50;;;19.20;99.90;;;;;;5016011;28;20069;-71
2023/09/18 04:26:15;;;;;;;7.45;4.72;;;19.20;99.90;;;;;;4997014;28;20045;-71
2023/09/18 04:29:01;;;;;;;5.65;4.75;;;19.20;99.90;;;;;;4996753;28;20382;-71
2023/09/18 04:31:48;;;;;;;7.18;4.80;;;19.10;99.90;;;;;;5031793;28;20045;-71
2023/09/18 04:34:34;;;;;;;6.25;5.05;;;19.10;99.90;;;;;;5036319;28;20110;-71
2023/09/18 04:37:20;;;;;;;8.57;4.90;;;19.10;99.90;;;;;;5033428;28;20045;-71
2023/09/18 04:40:11;;;;;;;6.53;4.65;;;19.00;99.90;;;;;;5016891;28;20378;-71
2023/09/18 04:42:57;;;;;;;8.60;5.15;;;19.00;99.90;;;;;;5034624;28;20046;-71
2023/09/18 04:45:44;;;;;;;8.20;5.28;;;19.00;99.90;;;;;;5019532;28;20827;-71
2023/09/18 04:48:31;;;;;;;6.68;5.22;;;19.00;99.90;;;;;;5024078;28;20674;-71
2023/09/18 04:51:17;;;;;;;9.07;5.25;;;19.00;99.90;;;;;;5004967;28;20458;-71
2023/09/18 04:54:04;;;;;;;6.47;4.90;;;18.90;99.90;;;;;;5029087;28;20045;-71
2023/09/18 04:56:50;;;;;;;9.05;5.30;;;18.90;99.90;;;;;;5040461;28;20041;-71
2023/09/18 04:59:36;;;;;;;5.07;4.47;;;18.90;99.90;;;;;;5018382;28;20038;-70
2023/09/18 05:02:22;;;;;;;7.10;4.70;;;18.90;99.90;;;;;;5038209;28;20099;-71
2023/09/18 05:05:11;;;;;;;6.50;4.40;;;18.80;99.90;;;;;;5026066;28;20066;-70
2023/09/18 05:07:57;;;;;;;5.90;4.90;;;18.80;99.90;;;;;;5004611;28;20040;-71
2023/09/18 05:10:43;;;;;;;5.82;4.43;;;18.80;99.90;;;;;;5037174;28;20041;-71
2023/09/18 05:13:29;;;;;;;6.53;4.68;;;18.80;99.90;;;;;;5010529;28;20052;-71
2023/09/18 05:16:15;;;;;;;5.35;4.40;;;18.80;99.90;;;;;;5013028;28;20041;-71
2023/09/18 05:19:02;;;;;;;6.85;4.63;;;18.90;99.90;;;;;;5026583;28;20421;-71
2023/09/18 05:21:48;;;;;;;6.75;5.00;;;19.00;99.90;;;;;;5032956;28;20044;-71
2023/09/18 05:24:35;;;;;;;5.75;5.07;;;19.00;99.90;;;;;;5032729;28;20061;-71
2023/09/18 05:27:24;;;;;;;7.30;4.60;;;18.90;99.90;;;;;;5019734;28;20057;-71
2023/09/18 05:30:12;;;;;;;7.95;4.75;;;18.90;99.90;;;;;;5021064;28;20049;-72
2023/09/18 05:33:04;;;;;;;7.00;4.45;;;18.80;99.90;;;;;;5020752;28;20048;-71
2023/09/18 05:35:51;;;;;;;6.40;4.57;;;18.90;99.90;;;;;;5037161;28;20034;-71
2023/09/18 05:38:37;;;;;;;6.25;4.25;;;;;;;;;;5022839;28;20037;-71
2023/09/18 05:41:28;;;;;;;5.18;4.22;;;19.00;99.90;;;;;;5038094;28;20041;-71
2023/09/18 05:44:18;;;;;;;6.32;4.40;;;19.10;99.90;;;;;;5037154;28;20045;-71
2023/09/18 05:47:04;;;;;;;6.75;4.13;;;19.30;99.90;;;;;;5028072;28;20049;-71
2023/09/18 05:49:50;;;;;;;6.78;3.90;;;19.40;99.90;;;;;;5046335;28;20064;-71
2023/09/18 05:52:36;;;;;;;6.00;4.10;;;19.60;99.90;;;;;;5005751;28;20041;-71
2023/09/18 05:55:22;;;;;;;5.85;4.03;;;19.70;99.90;;;;;;5016517;28;20037;-72
2023/09/18 05:58:08;;;;;;;5.68;3.83;;;19.80;99.90;;;;;;5031218;28;20664;-72
2023/09/18 06:00:54;;;;;;;6.63;3.75;;;20.00;99.90;;;;;;5031196;28;20496;-72
2023/09/18 06:03:40;;;;;;;6.20;4.07;;;20.20;99.90;;;;;;5008707;28;20056;-71
2023/09/18 06:06:26;;;;;;;6.40;3.50;;;20.30;99.90;;;;;;4993998;28;20535;-71
2023/09/18 06:09:13;;;;;;;8.93;3.75;;;20.30;99.90;;;;;;5018028;28;20044;-71
2023/09/18 06:12:00;;;;;;;6.35;3.97;;;20.40;99.90;;;;;;4985992;28;20037;-71
2023/09/18 06:14:47;;;;;;;5.57;3.72;;;20.40;99.90;;;;;;5032778;28;20511;-71
2023/09/18 06:17:33;;;;;;;6.00;4.03;;;20.50;99.90;;;;;;5033813;28;20038;-71
2023/09/18 06:20:19;;;;;;;8.48;3.88;;;20.50;99.90;;;;;;5026495;28;20096;-71
2023/09/18 06:23:05;;;;;;;5.10;3.97;;;20.50;99.90;;;;;;5005146;28;20128;-71
2023/09/18 06:25:56;;;;;;;6.03;4.22;;;20.50;99.90;;;;;;5031723;28;20125;-71
2023/09/18 06:28:42;;;;;;;4.88;3.83;;;20.40;99.90;;;;;;5020771;28;20160;-71
2023/09/18 06:31:28;;;;;;;6.75;3.95;;;20.40;99.90;;;;;;5006385;28;20042;-70
2023/09/18 06:34:14;;;;;;;6.30;4.00;;;20.40;99.90;;;;;;5004609;28;20044;-71
2023/09/18 06:37:00;;;;;;;6.85;4.03;;;20.40;99.90;;;;;;5023313;28;20068;-72
2023/09/18 06:39:47;;;;;;;5.47;3.53;;;20.40;99.90;;;;;;5033668;28;20033;-71
2023/09/18 06:42:33;;;;;;;6.25;4.10;;;20.40;99.90;;;;;;5011105;28;20041;-70
2023/09/18 06:45:19;;;;;;;4.65;3.45;;;20.40;99.90;;;;;;5029033;28;20592;-72
2023/09/18 06:48:05;;;;;;;6.47;4.00;;;20.40;99.90;;;;;;5029914;28;20074;-72
2023/09/18 06:50:52;;;;;;;6.15;3.95;;;20.50;99.90;;;;;;5022067;28;20048;-72
2023/09/18 06:53:38;;;;;;;5.90;3.80;;;20.50;99.90;;;;;;5004995;28;20044;-72
2023/09/18 06:56:24;;;;;;;5.22;3.38;;;20.50;99.90;;;;;;5040262;28;20037;-72
2023/09/18 06:59:11;;;;;;;4.78;3.28;;;20.60;99.90;;;;;;5013206;28;20057;-72
2023/09/18 07:01:57;;;;;;;4.22;3.63;;;20.60;99.90;;;;;;5017965;28;20037;-72
2023/09/18 07:04:46;;;;;;;6.10;3.80;;;20.70;99.90;;;;;;5027815;28;20347;-72
2023/09/18 07:07:32;;;;;;;4.60;3.63;;;20.70;99.90;;;;;;5009249;28;20036;-72
2023/09/18 07:10:18;;;;;;;5.78;3.40;;;20.80;99.90;;;;;;5023156;28;20037;-72
2023/09/18 07:13:06;;;;;;;7.20;3.40;;;20.90;99.90;;;;;;4998946;28;20042;-72
2023/09/18 07:15:54;;;;;;;4.65;3.67;;;20.90;99.90;;;;;;4998138;28;20540;-72
2023/09/18 07:18:40;;;;;;;6.40;3.40;;;20.90;99.90;;;;;;4997458;28;20152;-72
2023/09/18 07:21:26;;;;;;;6.32;3.60;;;21.00;99.90;;;;;;5022077;28;20381;-72
2023/09/18 07:24:16;;;;;;;4.30;3.20;;;21.00;99.90;;;;;;5032521;28;20048;-72
2023/09/18 07:27:03;;;;;;;4.53;3.60;;;21.10;99.90;;;;;;5020749;28;20128;-73
2023/09/18 07:29:49;;;;;;;4.07;3.50;;;21.10;99.90;;;;;;5012807;28;20045;-72
2023/09/18 07:32:35;;;;;;;6.80;3.97;;;21.10;99.90;;;;;;5017315;28;20095;-72
2023/09/18 07:35:22;;;;;;;4.97;3.78;;;21.20;99.90;;;;;;5029498;28;20655;-72
2023/09/18 07:38:08;;;;;;;5.80;3.28;;;21.20;99.90;;;;;;5011137;28;20050;-70
2023/09/18 07:40:54;;;;;;;5.53;3.67;;;21.20;99.90;;;;;;5006672;28;20060;-72
2023/09/18 07:43:41;;;;;;;5.43;3.90;;;21.20;99.90;;;;;;5042157;28;20119;-72
2023/09/18 07:46:27;;;;;;;7.50;4.33;;;21.20;99.90;;;;;;5031951;28;20083;-70
2023/09/18 07:49:14;;;;;;;7.43;3.65;;;21.20;99.90;;;;;;5010701;28;20037;-70
2023/09/18 07:52:00;;;;;;;5.97;3.58;;;21.20;99.90;;;;;;5013947;28;20502;-70
2023/09/18 07:54:46;;;;;;;5.68;3.58;;;21.30;99.90;;;;;;5007924;28;20041;-70
2023/09/18 07:57:34;;;;;;;6.68;4.15;;;21.20;99.90;;;;;;5020613;28;20461;-70
2023/09/18 08:00:22;;;;;;;;;;;21.30;99.90;;;;;;5033661;28;20042;-70
2023/09/18 08:03:08;;;;;;;7.38;3.63;;;21.30;99.90;;;;;;5014528;28;19963;-70
2023/09/18 08:05:54;;;;;;;6.82;4.10;;;21.40;99.90;;;;;;5033440;28;20077;-72
2023/09/18 08:08:40;;;;;;;4.57;3.50;;;21.40;99.90;;;;;;5035950;28;20037;-72
2023/09/18 08:11:26;;;;;;;4.57;3.88;;;21.50;99.90;;;;;;4996331;28;20049;-72
2023/09/18 08:14:12;;;;;;;6.35;4.22;;;21.50;99.90;;;;;;5032069;28;20079;-70
2023/09/18 08:16:58;;;;;;;8.43;3.47;;;21.50;99.90;;;;;;5018974;28;20670;-70
2023/09/18 08:19:45;;;;;;;6.78;4.00;;;21.60;99.90;;;;;;5016119;28;20048;-70
2023/09/18 08:22:31;;;;;;;7.15;4.30;;;21.60;99.90;;;;;;5027169;28;20045;-71
2023/09/18 08:25:17;;;;;;;4.97;3.95;;;21.60;99.90;;;;;;5032416;28;20154;-70
2023/09/18 08:28:04;;;;;;;4.68;3.50;;;21.70;99.90;;;;;;5018875;28;20481;-70
2023/09/18 08:30:50;;;;;;;5.70;3.85;;;21.70;99.90;;;;;;5024630;28;20041;-71
2023/09/18 08:33:36;;;;;;;4.93;4.10;;;21.70;99.90;;;;;;5017420;28;20053;-70
2023/09/18 08:36:22;;;;;;;5.93;3.60;;;21.70;99.90;;;;;;5010963;28;20041;-70
2023/09/18 08:39:08;;;;;;;8.50;4.13;;;21.70;99.90;;;;;;5032594;28;20040;-71
2023/09/18 08:42:02;;;;;;;6.68;3.92;;;21.70;99.90;;;;;;5020699;28;20053;-70
2023/09/18 08:44:51;;;;;;;7.20;4.07;;;21.70;99.90;;;;;;5022536;28;20073;-70
2023/09/18 08:47:40;;;;;;;8.20;4.15;;;21.70;99.90;;;;;;5049100;28;20037;-70
2023/09/18 08:50:26;;;;;;;6.35;4.15;;;21.70;99.90;;;;;;5024498;28;20374;-70
2023/09/18 08:53:13;;;;;;;4.90;4.22;;;;;;;;;;5027912;28;20052;-71
2023/09/18 08:56:01;;;;;;;7.80;4.40;;;21.70;99.90;;;;;;5036061;28;20836;-71
2023/09/18 08:58:47;;;;;;;6.65;3.88;;;21.70;99.90;;;;;;5034845;28;20033;-71
2023/09/18 09:01:33;;;;;;;8.10;4.18;;;21.70;99.90;;;;;;5020580;28;20117;-70
2023/09/18 09:04:19;;;;;;;9.65;4.28;;;21.60;99.90;;;;;;5045318;28;20508;-71
2023/09/18 09:07:06;;;;;;;7.95;4.05;;;21.60;99.90;;;;;;5018991;28;20413;-71
2023/09/18 09:09:53;;;;;;;6.72;4.25;;;21.70;99.90;;;;;;5020160;28;20149;-71
2023/09/18 09:13:00;;;;;;;8.13;4.28;;;21.70;99.90;;;;;;5004891;28;20045;-70
2023/09/18 09:15:47;;;;;;;6.57;4.10;;;21.70;99.90;;;;;;5018874;28;20564;-71
2023/09/18 09:18:34;;;;;;;10.10;4.20;;;21.70;99.90;;;;;;5041746;28;20052;-71
2023/09/18 09:21:20;;;;;;;8.13;3.97;;;21.80;99.90;;;;;;5043031;28;20120;-71
2023/09/18 09:24:07;;;;;;;6.32;4.25;;;21.80;99.90;;;;;;5000974;28;20142;-71
2023/09/18 09:26:57;;;;;;;;;;;21.80;99.90;;;;;;5025820;28;20128;-71
2023/09/18 09:29:45;;;;;;;6.75;3.85;;;;;;;;;;5018915;28;19919;-71
2023/09/18 09:32:33;;;;;;;11.95;3.63;;;21.80;99.90;;;;;;5041365;28;20525;-71
2023/09/18 09:35:23;;;;;;;9.50;3.92;;;21.90;99.90;;;;;;5015651;28;20041;-71
2023/09/18 09:38:11;;;;;;;7.90;3.65;;;22.00;99.90;;;;;;5032223;28;20047;-71
2023/09/18 09:41:01;;;;;;;8.37;3.57;;;22.00;99.90;;;;;;5009503;28;20108;-71
2023/09/18 09:43:47;;;;;;;12.75;4.10;;;22.10;99.90;;;;;;5025062;28;20053;-71
2023/09/18 09:46:33;;;;;;;7.10;3.85;;;22.10;99.90;;;;;;5019778;28;20041;-71
2023/09/18 09:49:20;;;;;;;7.57;3.20;;;22.20;99.90;;;;;;5028977;28;20041;-71
2023/09/18 09:52:21;;;;;;;6.13;2.30;;;22.30;99.90;;;;;;5047953;28;20052;-71
2023/09/18 09:55:26;;;;;;;8.82;2.92;;;22.40;99.90;;;;;;5013282;28;20048;-70
2023/09/18 09:58:13;;;;;;;8.20;2.45;;;22.40;99.90;;;;;;5022437;28;20150;-70
2023/09/18 10:01:09;;;;;;;12.63;3.00;;;22.50;99.90;;;;;;5031575;28;20516;-70
2023/09/18 10:03:56;;;;;;;14.05;3.25;;;22.60;99.90;;;;;;5002905;28;20037;-70
2023/09/18 10:06:44;;;;;;;12.73;3.30;;;22.70;99.90;;;;;;4992905;28;20124;-71
2023/09/18 10:09:31;;;;;;;10.77;2.63;;;22.70;99.90;;;;;;4993613;28;20076;-71
2023/09/18 10:12:20;;;;;;;8.83;3.20;;;22.70;99.90;;;;;;4995290;28;20665;-71
2023/09/18 10:15:07;;;;;;;11.20;3.72;;;22.80;99.90;;;;;;5026739;28;20826;-71
2023/09/18 10:17:56;;;;;;;7.80;2.90;;;22.80;99.90;;;;;;5009293;28;20136;-71
2023/09/18 10:20:43;;;;;;;8.07;2.63;;;22.90;99.90;;;;;;5012508;28;20920;-71
2023/09/18 10:23:57;;;;;;;12.15;2.70;;;23.00;99.90;;;;;;5015597;28;20045;-71
2023/09/18 10:27:04;;;;;;;11.23;3.15;;;22.90;99.90;;;;;;5040608;28;20067;-71
2023/09/18 10:29:51;;;;;;;9.70;3.10;;;22.90;99.90;;;;;;5032311;28;20045;-71
2023/09/18 10:32:39;;;;;;;10.23;3.35;;;22.80;99.90;;;;;;5001499;28;20143;-71
2023/09/18 10:35:26;;;;;;;12.85;2.58;;;;;;;;;;5035809;28;20043;-71
2023/09/18 10:38:12;;;;;;;9.50;2.92;;;22.70;99.90;;;;;;5038761;28;20106;-71
2023/09/18 10:40:58;;;;;;;13.05;3.17;;;22.70;99.90;;;;;;5035775;28;20071;-70
2023/09/18 10:43:46;;;;;;;7.05;2.63;;;22.80;99.90;;;;;;5016034;28;20037;-70
2023/09/18 10:46:32;;;;;;;9.07;2.95;;;22.80;99.90;;;;;;4984887;28;20052;-70
2023/09/18 10:49:19;;;;;;;14.13;4.28;;;22.80;99.90;;;;;;5002119;28;20442;-70
2023/09/18 10:52:06;;;;;;;10.40;2.70;;;22.80;99.90;;;;;;5014633;28;20048;-71
2023/09/18 10:54:52;;;;;;;11.68;3.28;;;22.80;99.90;;;;;;5002187;28;20095;-71
2023/09/18 10:57:48;;;;;;;12.27;3.65;;;22.80;99.90;;;;;;5019170;28;20037;-70
2023/09/18 11:00:36;;;;;;;10.15;2.85;;;22.80;99.90;;;;;;5022647;28;20131;-70
2023/09/18 11:03:23;;;;;;;10.77;3.60;;;;;;;;;;5025421;28;20148;-71
2023/09/18 11:06:12;;;;;;;11.60;3.70;;;22.90;99.90;;;;;;5037653;28;20437;-71
2023/09/18 11:09:09;;;;;;;8.48;3.78;;;22.90;99.90;;;;;;5004639;28;20033;-71
2023/09/18 11:12:02;;;;;;;9.20;3.05;;;22.90;99.90;;;;;;5013734;28;20786;-71
2023/09/18 11:14:52;;;;;;;14.90;4.10;;;22.90;99.90;;;;;;5044697;28;20072;-71
2023/09/18 11:17:39;;;;;;;8.85;2.75;;;22.90;99.90;;;;;;5030343;28;20336;-71
2023/09/18 11:20:25;;;;;;;13.85;3.47;;;23.00;99.90;;;;;;5016441;28;20071;-71
2023/09/18 11:23:13;;;;;;;12.32;3.20;;;23.00;99.90;;;;;;5015936;28;20536;-71
2023/09/18 11:26:04;;;;;;;13.32;3.05;;;23.00;99.90;;;;;;5027150;28;20053;-71
2023/09/18 11:28:50;;;;;;;9.52;2.78;;;23.00;99.90;;;;;;5003460;28;20152;-71
2023/09/18 11:31:50;;;;;;;8.98;3.10;;;23.00;99.90;;;;;;5019355;28;20485;-71
2023/09/18 11:34:37;;;;;;;14.98;2.70;;;23.00;99.90;;;;;;5020411;28;20060;-71
2023/09/18 11:37:26;;;;;;;9.50;2.78;;;23.00;99.90;;;;;;4998678;28;20066;-71
2023/09/18 11:40:37;;;;;;;9.30;2.55;;;23.00;99.90;;;;;;5046474;28;20829;-71
2023/09/18 11:43:25;;;;;;;11.65;2.97;;;23.00;99.90;;;;;;5013905;28;20077;-72
2023/09/18 11:46:12;;;;;;;9.25;2.80;;;23.00;99.90;;;;;;4987042;28;20049;-71
2023/09/18 11:48:59;;;;;;;10.70;2.73;;;23.10;99.90;;;;;;5002899;28;20405;-72
2023/09/18 11:51:46;;;;;;;7.15;2.45;;;23.00;99.90;;;;;;4996977;28;20152;-72
2023/09/18 11:54:34;;;;;;;11.65;2.50;;;23.00;99.90;;;;;;4996083;28;20041;-72
2023/09/18 11:57:20;;;;;;;12.18;3.92;;;23.00;99.90;;;;;;5026423;28;20037;-72
2023/09/18 12:00:22;;;;;;;14.38;2.40;;;23.00;99.90;;;;;;5017462;28;20116;-72
2023/09/18 12:03:27;;;;;;;7.60;2.45;;;22.90;99.90;;;;;;4999289;28;20768;-72
2023/09/18 12:06:13;;;;;;;9.70;2.30;;;22.90;99.90;;;;;;5006566;28;20116;-70
2023/09/18 12:08:59;;;;;;;8.27;2.45;;;22.90;99.90;;;;;;5024275;28;20132;-71
2023/09/18 12:11:46;;;;;;;11.57;3.05;;;22.90;99.90;;;;;;5016958;28;20572;-71
2023/09/18 12:14:33;;;;;;;8.68;2.78;;;;;;;;;;5026779;28;20067;-70
2023/09/18 12:17:19;;;;;;;8.48;3.15;;;22.90;99.90;;;;;;5021380;28;20109;-72
2023/09/18 12:20:06;;;;;;;10.20;2.47;;;22.90;99.90;;;;;;5017814;28;20056;-70
2023/09/18 12:22:52;;;;;;;6.00;2.25;;;22.90;99.90;;;;;;5014795;28;20037;-70
2023/09/18 12:25:38;;;;;;;11.30;2.80;;;22.90;99.90;;;;;;5029563;28;20053;-70
2023/09/18 12:28:27;;;;;;;8.00;2.28;;;23.00;99.90;;;;;;5020120;28;20045;-70
2023/09/18 12:31:16;;;;;;;11.52;2.88;;;23.00;99.90;;;;;;5010401;28;20046;-71
2023/09/18 12:34:02;;;;;;;9.15;3.10;;;23.00;99.90;;;;;;5001323;28;20041;-71
2023/09/18 12:36:48;;;;;;;8.60;2.90;;;22.90;99.90;;;;;;5007335;28;20716;-71
2023/09/18 12:39:34;;;;;;;11.02;2.90;;;23.00;99.90;;;;;;5030015;28;20493;-71
2023/09/18 12:42:21;;;;;;;14.52;2.88;;;22.90;99.90;;;;;;4995215;28;20212;-71
2023/09/18 12:45:08;;;;;;;9.02;2.40;;;;;;;;;;5012046;28;20072;-71
2023/09/18 12:47:55;;;;;;;8.55;2.45;;;22.90;99.90;;;;;;5027935;28;20052;-71
2023/09/18 12:50:42;;;;;;;5.47;2.38;;;;;;;;;;4998518;28;20069;-71
2023/09/18 12:53:28;;;;;;;10.18;2.70;;;;;;;;;;5007289;28;20045;-71
2023/09/18 12:56:15;;;;;;;12.13;2.70;;;;;;;;;;5030933;28;20136;-74
2023/09/18 12:59:03;;;;;;;9.23;3.38;;;;;;;;;;5030013;28;20037;-74
2023/09/18 13:01:50;;;;;;;8.52;2.42;;;;;;;;;;5026419;28;20037;-74
2023/09/18 13:04:37;;;;;;;7.18;2.58;;;;;;;;;;5036861;28;20041;-74
2023/09/18 13:07:27;;;;;;;8.85;2.95;;;;;;;;;;5016800;28;20055;-73
2023/09/18 13:10:14;;;;;;;11.52;2.60;;;22.80;99.90;;;;;;5029601;28;20135;-73
2023/09/18 13:13:03;;;;;;;9.23;2.60;;;22.80;99.90;;;;;;5020223;28;20128;-74
2023/09/18 13:15:49;;;;;;;13.93;2.60;;;22.90;99.90;;;;;;5009255;28;20045;-74
2023/09/18 13:18:35;;;;;;;9.82;2.83;;;22.90;99.90;;;;;;5050742;28;20112;-74
2023/09/18 13:21:21;;;;;;;12.10;2.50;;;22.80;99.90;;;;;;5012563;28;20067;-74
2023/09/18 13:24:07;;;;;;;7.55;2.13;;;22.80;99.90;;;;;;5029436;28;20083;-74
2023/09/18 13:26:54;;;;;;;10.73;2.53;;;22.80;99.90;;;;;;5046189;28;20102;-74
2023/09/18 13:29:40;;;;;;;8.85;2.38;;;22.80;99.90;;;;;;5045474;28;20414;-74
2023/09/18 13:32:26;;;;;;;7.38;2.35;;;22.80;99.90;;;;;;5023194;28;20045;-74
2023/09/18 13:35:13;;;;;;;8.30;2.70;;;22.80;99.90;;;;;;5035991;28;20132;-74
2023/09/18 13:37:59;;;;;;;6.70;1.80;;;22.80;99.90;;;;;;5036922;28;20034;-74
2023/09/18 13:40:47;;;;;;;7.38;1.92;;;22.80;99.90;;;;;;5022261;28;20101;-74
2023/09/18 13:43:34;;;;;;;8.68;2.50;;;22.80;99.90;;;;;;5012029;28;20099;-74
2023/09/18 13:46:20;;;;;;;11.23;2.88;;;22.80;99.90;;;;;;5032860;28;20051;-74
2023/09/18 13:49:06;;;;;;;6.53;2.10;;;22.70;99.90;;;;;;5042658;28;20045;-74
2023/09/18 13:51:54;;;;;;;7.93;2.10;;;22.80;99.90;;;;;;5045325;28;20437;-74
2023/09/18 13:54:41;;;;;;;7.03;2.42;;;22.70;99.90;;;;;;5026804;28;20044;-74
2023/09/18 13:57:27;;;;;;;7.22;2.25;;;22.70;99.90;;;;;;5032842;28;20048;-74
2023/09/18 14:00:14;;;;;;;7.82;1.80;;;22.80;99.90;;;;;;5025295;28;20121;-74
2023/09/18 14:03:00;;;;;;;7.88;2.20;;;22.70;99.90;;;;;;5007887;28;20065;-74
2023/09/18 14:05:46;;;;;;;7.93;2.47;;;22.70;99.90;;;;;;5007272;28;20041;-73
2023/09/18 14:08:32;;;;;;;6.93;2.15;;;22.70;99.90;;;;;;5026615;28;20048;-74
2023/09/18 14:11:18;;;;;;;6.18;2.30;;;22.70;99.90;;;;;;5003610;28;20056;-74
2023/09/18 14:14:04;;;;;;;6.63;2.05;;;22.70;99.90;;;;;;5039480;28;20040;-74
2023/09/18 14:16:51;;;;;;;10.13;2.30;;;22.70;99.90;;;;;;5022497;28;20033;-74
2023/09/18 14:19:38;;;;;;;9.20;2.40;;;22.60;99.90;;;;;;4997790;28;20825;-74
2023/09/18 14:22:24;;;;;;;6.75;2.58;;;22.70;99.90;;;;;;4990679;28;20551;-73
2023/09/18 14:25:11;;;;;;;8.57;2.50;;;22.70;99.90;;;;;;5015841;28;20068;-73
2023/09/18 14:27:57;;;;;;;5.68;1.98;;;22.60;99.90;;;;;;4988371;28;20092;-73
2023/09/18 14:30:43;;;;;;;5.97;1.88;;;22.60;99.90;;;;;;4981406;28;20046;-74
2023/09/18 14:33:30;;;;;;;10.57;2.40;;;22.60;99.90;;;;;;4975426;28;20809;-74
2023/09/18 14:36:16;;;;;;;8.07;2.35;;;22.60;99.90;;;;;;4983886;28;20038;-74